Ames, NE (68621)

12:29 AM CDT on September 15, 2014 (GMT -0500)
Fremont Municipal | Change Station
CLOSE
Current Station
Airport
Location: Fremont,
Elevation: 1204 ft
Nearby Weather Stations

Elev 1204 ft 41.45 °N, 96.52 °W | Updated 14 minutes ago

Overcast
Overcast
63 °F
Feels Like 63 °F
N
4
Wind Variable Wind from ENE

Today
High -- | Low -- °F
--% Chance of Precip.
Yesterday
High -- | Low -- °F
Precip. -- in
7:06 AM 7:35 PM
Waning Gibbous, 59% visible
Pressure 30.07 in
Visibility 10.0 miles
Clouds Overcast 4800 ft
Dew Point 54 °F
Humidity 73%
Rainfall 0.00 in
Snow Depth Not available.
UV 0 out of 12
Pollen 7.10 out of 12
Air Quality Not available.
Flu Activity Not available.
METAR KFET 150515Z AUTO 06003KT 10SM -DZ OVC048 17/12 A3007 RMK AO2 T01710122

More Conditions Fewer Conditions

Pressure 30.07 in
Visibility 10.0 miles
Clouds Overcast 4800 ft
Dew Point 54 °F
Humidity 73%
Rainfall 0.00 in
Snow Depth Not available.
UV 0 out of 12
Pollen 7.10 out of 12
Air Quality Not available.
Flu Activity Not available.
METAR KFET 150515Z AUTO 06003KT 10SM -DZ OVC048 17/12 A3007 RMK AO2 T01710122

More Conditions Fewer Conditions

10-Day Weather Forecast

Almanac

Astronomy

Sep. 15, 2014 Rise Set
Actual Time 7:06 AM CDT 7:35 PM CDT
Civil Twilight 6:39 AM CDT 8:03 PM CDT
Nautical Twilight 6:06 AM CDT 8:36 PM CDT
Astronomical Twilight 5:32 AM CDT 9:09 PM CDT
Moon No Moon Rise 2:12 PM CDT
Length of Visible Light 13h 24m
Length of Day
12h 28m
Tomorrow will be 2m 45s shorter.
Waning Gibbous, 59% of the Moon is Illuminated
Today
Waning Gibbous
Sep 15
Last Quarter
Sep 24
New
Oct 1
First Quarter
Oct 8
Full

Today's Extremes

State Highs State Lows

Community

WunderPhotos

Upload Photos

1,753,414 photos uploaded!

Nearby

Snow Depth

Station Depth Elevation
No new snow has been reported.

Earthquake Activity

City Distance Mag. Time & Date
No recent earthquake activity has been reported nearby.
Minimum magnitude displayed is 2.5.

Coastal Water Temperatures

Place Temperature
No Stations Reporting

Nearby Weather Stations